Time;durP1;ratioP1;P1;durP2;ratioP2;P2;SDS_P1;SDS_P2;PMS_P1;PMS_P2;Temp;Humidity;BMP_temperature;BMP_pressure;BME280_temperature;BME280_humidity;BME280_pressure;Samples;Min_cycle;Max_cycle;Signal;HPM_P1;HPM_P2
2022/07/08 00:00:25;;;;;;;;;4.00;1.75;;;;;26.87;36.51;102604.72;5100858;27;45325;-84
2022/07/08 00:02:51;;;;;;;;;3.75;2.75;;;;;26.88;36.82;102620.84;5104280;27;45298;-84
2022/07/08 00:05:16;;;;;;;;;2.75;2.75;;;;;26.89;36.65;102611.69;5083278;27;48098;-84
2022/07/08 00:07:42;;;;;;;;;2.75;1.75;;;;;26.85;36.90;102625.75;5102419;27;45288;-84
2022/07/08 00:10:08;;;;;;;;;3.00;2.00;;;;;26.76;37.18;102617.59;5085681;27;45472;-84
2022/07/08 00:12:33;;;;;;;;;3.75;2.25;;;;;26.30;37.53;102623.50;5085922;27;45423;-84
2022/07/08 00:14:58;;;;;;;;;5.50;2.75;;;;;26.28;37.62;102611.97;5103723;27;45722;-84
2022/07/08 00:17:24;;;;;;;;;3.00;2.50;;;;;26.64;37.15;102615.34;5102601;27;45220;-84
2022/07/08 00:19:49;;;;;;;;;1.50;1.50;;;;;26.68;37.17;102614.84;5084298;27;45216;-84
2022/07/08 00:22:14;;;;;;;;;3.00;3.00;;;;;26.29;37.56;102622.63;5102274;27;45526;-84
2022/07/08 00:24:40;;;;;;;;;4.50;3.00;;;;;26.46;37.93;102620.84;5103504;27;46245;-84
2022/07/08 00:27:05;;;;;;;;;3.00;3.00;;;;;26.67;36.90;102615.88;5085021;27;45160;-84
2022/07/08 00:29:30;;;;;;;;;4.50;3.00;;;;;26.89;37.17;102616.25;5084599;27;45338;-84
2022/07/08 00:31:56;;;;;;;;;3.75;3.50;;;;;26.57;37.17;102617.00;5083745;27;45465;-84
2022/07/08 00:34:21;;;;;;;;;5.50;2.75;;;;;26.51;37.45;102615.78;5083810;27;46470;-84
2022/07/08 00:36:47;;;;;;;;;5.25;2.50;;;;;26.55;37.91;102611.75;5081090;27;45452;-84
2022/07/08 00:39:12;;;;;;;;;4.00;3.00;;;;;26.63;37.32;102613.63;5087061;27;45377;-84
2022/07/08 00:41:39;;;;;;;;;3.50;2.25;;;;;26.61;37.19;102607.53;5101256;27;45239;-84
2022/07/08 00:44:05;;;;;;;;;2.00;2.00;;;;;26.57;37.11;102604.31;5082635;27;47257;-84
2022/07/08 00:46:30;;;;;;;;;4.25;3.25;;;;;26.46;37.63;102593.75;5082746;27;45913;-84
2022/07/08 00:48:56;;;;;;;;;2.50;2.50;;;;;26.08;37.71;102608.59;5101126;27;45340;-84
2022/07/08 00:51:21;;;;;;;;;4.00;3.50;;;;;26.06;37.72;102608.75;5100992;27;45570;-84
2022/07/08 00:53:52;;;;;;;;;6.00;4.00;;;;;26.66;37.06;102610.63;5082623;27;47018;-84
2022/07/08 00:56:19;;;;;;;;;4.75;3.75;;;;;26.40;37.59;102611.50;5101176;27;45527;-84
2022/07/08 00:58:46;;;;;;;;;9.50;3.75;;;;;26.41;37.49;102623.19;5101157;27;45381;-84
2022/07/08 01:01:11;;;;;;;;;3.50;2.00;;;;;26.38;37.51;102620.81;5100819;27;46098;-84
2022/07/08 01:03:37;;;;;;;;;5.00;2.25;;;;;26.30;37.42;102624.34;5100295;27;46261;-84
2022/07/08 01:06:02;;;;;;;;;2.75;2.25;;;;;26.32;37.38;102629.56;5101233;27;45468;-84
2022/07/08 01:08:28;;;;;;;;;4.50;2.25;;;;;26.26;37.75;102622.94;5082463;27;45413;-84
2022/07/08 01:10:53;;;;;;;;;3.50;2.50;;;;;26.24;37.64;102629.50;5102672;27;45315;-84
2022/07/08 01:13:19;;;;;;;;;3.75;3.00;;;;;26.23;37.56;102627.78;5101196;27;45252;-84
2022/07/08 01:15:45;;;;;;;;;3.25;3.00;;;;;26.20;37.62;102633.56;5082596;27;45269;-84
2022/07/08 01:18:30;;;;;;;;;2.25;2.00;;;;;26.17;37.91;102628.44;5082940;27;45283;-84
2022/07/08 01:20:57;;;;;;;;;4.75;3.00;;;;;26.09;37.93;102640.06;5101899;27;45280;-84
2022/07/08 01:23:22;;;;;;;;;3.25;2.00;;;;;25.59;38.63;102651.53;5100075;27;46443;-84
2022/07/08 01:25:48;;;;;;;;;4.50;2.50;;;;;25.92;38.20;102649.94;5083788;27;45727;-84
2022/07/08 01:28:14;;;;;;;;;2.50;2.50;;;;;25.98;38.06;102643.03;5101862;27;45353;-84
2022/07/08 01:30:40;;;;;;;;;6.00;3.00;;;;;26.04;37.89;102662.19;5101807;27;45361;-84
2022/07/08 01:33:06;;;;;;;;;4.00;4.00;;;;;26.02;37.98;102660.69;5080098;27;47233;-84
2022/07/08 01:35:31;;;;;;;;;1.50;1.00;;;;;25.52;39.03;102657.69;5082207;27;45444;-84
2022/07/08 01:37:57;;;;;;;;;5.50;2.50;;;;;25.68;38.32;102653.28;5100178;27;46027;-84
2022/07/08 01:40:22;;;;;;;;;2.00;2.00;;;;;25.85;38.19;102659.72;5082436;27;46037;-84
2022/07/08 01:42:48;;;;;;;;;5.00;2.75;;;;;25.89;38.61;102663.78;5081641;27;47556;-84
2022/07/08 01:45:13;;;;;;;;;3.75;3.75;;;;;25.86;38.38;102663.28;5098365;27;45484;-84
2022/07/08 01:47:38;;;;;;;;;2.75;2.75;;;;;25.85;38.21;102654.31;5093383;27;45714;-84
2022/07/08 01:50:05;;;;;;;;;3.00;2.75;;;;;25.83;38.33;102656.31;5078875;27;45316;-84
2022/07/08 01:52:30;;;;;;;;;4.00;4.00;;;;;25.54;38.77;102652.97;5081213;27;47007;-84
2022/07/08 01:54:55;;;;;;;;;3.25;3.00;;;;;25.73;38.82;102663.66;5081662;27;45346;-84
2022/07/08 01:57:21;;;;;;;;;7.00;3.75;;;;;25.39;38.71;102660.78;5094443;27;45437;-84
2022/07/08 01:59:48;;;;;;;;;5.75;3.00;;;;;25.51;39.00;102664.09;5081690;27;45600;-84
2022/07/08 02:02:15;;;;;;;;;3.00;3.00;;;;;25.19;39.38;102651.97;5080601;27;46784;-84
2022/07/08 02:04:41;;;;;;;;;6.00;4.75;;;;;25.24;39.26;102654.19;5078948;27;45399;-84
2022/07/08 02:07:07;;;;;;;;;3.00;2.00;;;;;25.08;39.46;102646.75;5081986;27;45432;-84
2022/07/08 02:09:33;;;;;;;;;6.00;3.00;;;;;26.00;38.45;102652.72;5099979;27;45261;-84
2022/07/08 02:14:42;;;;;;;;;6.00;2.50;;;;;25.56;38.76;102653.66;5099917;27;45795;-84
2022/07/08 02:17:08;;;;;;;;;3.50;2.00;;;;;26.05;38.13;102655.78;5098792;27;45411;-84
2022/07/08 02:19:35;;;;;;;;;3.00;2.50;;;;;26.13;38.11;102656.88;5099951;27;45398;-84
2022/07/08 02:22:01;;;;;;;;;4.50;2.75;;;;;25.80;38.42;102661.16;5072564;28;48469;-84
2022/07/08 02:24:26;;;;;;;;;3.00;2.00;;;;;25.28;39.33;102655.59;5102522;27;45878;-84
2022/07/08 02:26:52;;;;;;;;;5.00;2.00;;;;;25.32;39.26;102668.63;5085005;27;45207;-84
2022/07/08 02:29:17;;;;;;;;;5.00;2.00;;;;;25.50;38.88;102663.25;5085511;27;45539;-84
2022/07/08 02:31:43;;;;;;;;;2.75;2.75;;;;;25.48;38.87;102665.28;5085521;27;47003;-84
2022/07/08 02:34:09;;;;;;;;;3.00;2.00;;;;;25.40;39.26;102661.63;5087373;27;45516;-84
2022/07/08 02:36:35;;;;;;;;;4.00;2.00;;;;;25.43;38.91;102654.03;5083380;27;45365;-84
2022/07/08 02:39:00;;;;;;;;;3.00;2.50;;;;;25.39;38.60;102651.81;5077390;27;45901;-83
2022/07/08 02:41:26;;;;;;;;;2.50;2.50;;;;;25.81;38.22;102644.78;5084777;27;47086;-84
2022/07/08 02:43:51;;;;;;;;;4.00;2.25;;;;;25.98;37.87;102649.31;5085582;27;45434;-84
2022/07/08 02:46:16;;;;;;;;;2.00;2.00;;;;;25.84;38.00;102633.66;5103980;27;45388;-84
2022/07/08 02:48:41;;;;;;;;;2.50;2.00;;;;;26.07;38.10;102634.81;5103434;27;45565;-84
2022/07/08 02:51:07;;;;;;;;;2.00;2.00;;;;;25.96;37.73;102648.59;5103519;27;46485;-84
2022/07/08 02:53:32;;;;;;;;;7.25;3.50;;;;;25.99;38.43;102642.03;5086576;27;45441;-84
2022/07/08 02:55:58;;;;;;;;;2.00;2.00;;;;;25.84;37.81;102641.78;5089628;27;45323;-84
2022/07/08 02:58:23;;;;;;;;;4.75;2.00;;;;;25.86;37.99;102647.84;5117129;27;45133;-84
2022/07/08 03:00:48;;;;;;;;;4.25;2.00;;;;;25.72;38.22;102645.72;5100136;27;47090;-83
2022/07/08 03:03:14;;;;;;;;;3.25;2.00;;;;;25.74;37.99;102651.84;5114672;27;44652;-84
2022/07/08 03:05:39;;;;;;;;;5.00;3.00;;;;;25.82;38.08;102651.03;5108566;27;45877;-84
2022/07/08 03:08:05;;;;;;;;;5.25;4.00;;;;;25.93;38.00;102659.78;5107427;27;45216;-84
2022/07/08 03:10:30;;;;;;;;;3.25;3.00;;;;;25.57;38.39;102650.81;5103300;27;46721;-84
2022/07/08 03:12:55;;;;;;;;;5.00;2.50;;;;;25.55;38.73;102662.78;5084738;27;45404;-84
